Time;durP1;ratioP1;P1;durP2;ratioP2;P2;SDS_P1;SDS_P2;PMS_P1;PMS_P2;Temp;Humidity;BMP_temperature;BMP_pressure;BME280_temperature;BME280_humidity;BME280_pressure;Samples;Min_cycle;Max_cycle;Signal;HPM_P1;HPM_P2
2023/10/18 00:02:16;;;;;;;29.38;18.10;;;;;;;;;;5102717;27;20751;-80
2023/10/18 00:05:05;;;;;;;28.40;16.77;;;;;;;;;;5101576;27;20043;-79
2023/10/18 00:07:51;;;;;;;31.88;17.10;;;;;;;;;;5108812;27;20034;-80
2023/10/18 00:10:36;;;;;;;28.35;16.73;;;;;;;;;;5109448;27;21770;-79
2023/10/18 00:13:24;;;;;;;25.63;15.88;;;;;;;;;;5103738;27;20397;-81
2023/10/18 00:16:10;;;;;;;28.02;15.77;;;;;;;;;;5102969;27;20050;-80
2023/10/18 00:18:54;;;;;;;39.15;18.35;;;;;;;;;;5103354;27;20041;-80
2023/10/18 00:21:40;;;;;;;36.65;20.05;;;;;;;;;;5108546;27;20039;-81
2023/10/18 00:24:25;;;;;;;36.15;21.23;;;;;;;;;;5107584;27;20495;-80
2023/10/18 00:27:12;;;;;;;38.65;22.10;;;;;;;;;;5107323;27;20038;-79
2023/10/18 00:29:58;;;;;;;38.95;21.05;;;;;;;;;;5106229;27;20066;-80
2023/10/18 00:32:44;;;;;;;40.50;23.73;;;;;;;;;;5100472;27;20374;-82
2023/10/18 00:35:32;;;;;;;50.25;25.23;;;;;;;;;;5106418;27;20046;-80
2023/10/18 00:38:18;;;;;;;49.53;25.38;;;;;;;;;;5100081;27;20042;-81
2023/10/18 00:41:06;;;;;;;42.70;23.45;;;;;;;;;;5100324;27;20398;-79
2023/10/18 00:43:55;;;;;;;32.45;19.20;;;;;;;;;;5100223;27;20485;-81
2023/10/18 00:46:40;;;;;;;45.50;23.50;;;;;;;;;;5099709;27;20386;-81
2023/10/18 00:49:27;;;;;;;49.45;25.23;;;;;;;;;;5100517;27;20066;-80
2023/10/18 00:52:15;;;;;;;46.20;25.17;;;;;;;;;;5106834;27;20050;-82
2023/10/18 00:55:00;;;;;;;49.67;26.10;;;;;;;;;;5097987;27;20047;-79
2023/10/18 00:57:47;;;;;;;52.92;27.58;;;;;;;;;;5100405;27;20038;-79
2023/10/18 01:00:32;;;;;;;49.95;27.20;;;;;;;;;;5105698;27;20050;-80
2023/10/18 01:03:29;;;;;;;47.53;25.58;;;;;;;;;;5105354;27;20402;-80
2023/10/18 01:06:20;;;;;;;47.65;26.75;;;;;;;;;;5104774;27;20397;-82
2023/10/18 01:09:06;;;;;;;56.95;30.52;;;;;;;;;;5090509;27;20050;-81
2023/10/18 01:11:52;;;;;;;49.95;28.92;;;;;;;;;;5099548;27;20354;-81
2023/10/18 01:14:37;;;;;;;47.30;28.08;;;;;;;;;;5105784;27;20484;-81
2023/10/18 01:17:21;;;;;;;48.25;27.73;;;;;;;;;;5106936;27;20038;-81
2023/10/18 01:20:13;;;;;;;48.75;27.00;;;;;;;;;;5102627;27;20386;-79
2023/10/18 01:22:59;;;;;;;41.53;24.90;;;;;;;;;;5100322;27;20496;-81
2023/10/18 01:25:45;;;;;;;45.20;26.42;;;;;;;;;;5106811;27;20042;-80
2023/10/18 01:28:30;;;;;;;44.53;25.27;;;;;;;;;;5103919;27;20075;-81
2023/10/18 01:31:16;;;;;;;39.42;22.58;;;;;;;;;;5106816;27;20492;-78
2023/10/18 01:34:03;;;;;;;38.95;22.85;;;;;;;;;;5098889;27;20394;-80
2023/10/18 01:36:49;;;;;;;55.55;24.98;;;;;;;;;;5098172;28;20474;-79
2023/10/18 01:39:34;;;;;;;60.38;30.08;;;;;;;;;;5098781;28;20394;-79
2023/10/18 01:42:21;;;;;;;55.58;28.58;;;;;;;;;;5105787;27;20035;-80
2023/10/18 01:45:07;;;;;;;77.22;36.40;;;;;;;;;;5106845;27;20049;-79
2023/10/18 01:47:52;;;;;;;48.63;26.63;;;;;;;;;;5098917;28;20043;-79
2023/10/18 01:50:39;;;;;;;40.15;23.45;;;;;;;;;;5106143;27;20045;-82
2023/10/18 01:53:26;;;;;;;42.25;23.92;;;;;;;;;;5099281;28;20062;-81
2023/10/18 01:56:11;;;;;;;45.47;24.42;;;;;;;;;;5099016;28;20050;-81
2023/10/18 01:58:56;;;;;;;50.22;28.50;;;;;;;;;;5090541;27;20043;-81
2023/10/18 02:01:45;;;;;;;45.90;25.17;;;;;;;;;;5104749;27;20038;-81
2023/10/18 02:04:36;;;;;;;46.80;24.50;;;;;;;;;;5104204;27;20092;-80
2023/10/18 02:07:22;;;;;;;43.63;23.42;;;;;;;;;;5112452;27;20046;-78
2023/10/18 02:10:07;;;;;;;40.80;22.63;;;;;;;;;;5112164;27;20046;-80
2023/10/18 02:12:52;;;;;;;46.13;24.08;;;;;;;;;;5100257;27;20469;-81
2023/10/18 02:15:39;;;;;;;51.97;26.13;;;;;;;;;;5105257;27;20402;-79
2023/10/18 02:18:24;;;;;;;46.03;26.45;;;;;;;;;;5106634;27;20401;-80
2023/10/18 02:21:09;;;;;;;48.92;26.55;;;;;;;;;;5099060;27;20039;-78
2023/10/18 02:23:55;;;;;;;42.72;26.05;;;;;;;;;;5105377;27;20078;-78
2023/10/18 02:26:54;;;;;;;42.92;25.67;;;;;;;;;;5104207;27;20401;-79
2023/10/18 02:29:40;;;;;;;43.90;24.77;;;;;;;;;;5099657;27;20046;-80
2023/10/18 02:35:19;;;;;;;44.55;25.35;;;;;;;;;;5099458;27;20074;-78
2023/10/18 02:38:08;;;;;;;42.60;25.65;;;;;;;;;;5105764;27;20559;-79
2023/10/18 02:40:56;;;;;;;42.42;25.80;;;;;;;;;;5101969;27;20401;-81
2023/10/18 02:43:54;;;;;;;44.08;25.48;;;;;;;;;;5100641;27;20046;-80
2023/10/18 02:46:40;;;;;;;43.47;25.30;;;;;;;;;;5100169;27;20390;-80
2023/10/18 02:49:27;;;;;;;51.88;26.05;;;;;;;;;;5099447;27;20386;-79
2023/10/18 02:52:15;;;;;;;47.85;25.60;;;;;;;;;;5104567;27;20488;-80
2023/10/18 02:55:02;;;;;;;44.40;26.83;;;;;;;;;;5104492;27;20050;-82
2023/10/18 02:57:49;;;;;;;46.70;27.70;;;;;;;;;;5098130;27;20042;-79
2023/10/18 03:00:36;;;;;;;43.03;24.60;;;;;;;;;;5098804;27;20050;-79
2023/10/18 03:03:22;;;;;;;47.22;24.67;;;;;;;;;;5096742;27;20055;-80
2023/10/18 03:06:14;;;;;;;43.67;23.05;;;;;;;;;;5105008;27;20481;-85
2023/10/18 03:09:00;;;;;;;41.05;23.88;;;;;;;;;;5098094;27;20058;-79
2023/10/18 03:11:45;;;;;;;43.92;24.17;;;;;;;;;;5096108;27;20038;-82
2023/10/18 03:14:39;;;;;;;59.70;30.08;;;;;;;;;;5097879;27;20493;-82
2023/10/18 03:17:28;;;;;;;56.30;31.48;;;;;;;;;;5101754;27;20047;-79
2023/10/18 03:20:23;;;;;;;51.20;28.95;;;;;;;;;;5104199;27;20054;-80
2023/10/18 03:23:08;;;;;;;52.95;29.38;;;;;;;;;;5098579;27;20398;-80
2023/10/18 03:25:59;;;;;;;49.85;27.27;;;;;;;;;;5099486;27;20486;-80
2023/10/18 03:28:45;;;;;;;50.13;26.65;;;;;;;;;;5100256;27;20059;-81
2023/10/18 03:31:35;;;;;;;46.40;26.80;;;;;;;;;;5098439;27;20046;-81
2023/10/18 03:34:22;;;;;;;45.67;27.58;;;;;;;;;;5099345;27;20046;-81
2023/10/18 03:37:08;;;;;;;48.92;27.05;;;;;;;;;;5097997;27;20551;-80
2023/10/18 03:39:53;;;;;;;47.88;28.52;;;;;;;;;;5102855;27;20394;-81
2023/10/18 03:42:44;;;;;;;54.58;30.60;;;;;;;;;;5103248;27;20054;-81
2023/10/18 03:46:06;;;;;;;45.88;28.65;;;;;;;;;;5096810;27;20387;-79
2023/10/18 03:48:39;;;;;;;49.47;29.27;;;;;;;;;;5096679;27;20479;-82
2023/10/18 03:51:25;;;;;;;46.25;27.50;;;;;;;;;;5102992;27;20353;-81
2023/10/18 03:54:13;;;;;;;39.22;25.60;;;;;;;;;;5101416;27;20038;-79
2023/10/18 03:57:06;;;;;;;39.95;23.90;;;;;;;;;;5103235;27;20046;-80
2023/10/18 03:59:52;;;;;;;39.10;22.27;;;;;;;;;;5103579;27;20035;-82
2023/10/18 04:02:40;;;;;;;34.03;20.92;;;;;;;;;;5106319;27;20072;-79
2023/10/18 04:06:02;;;;;;;34.90;19.63;;;;;;;;;;5101128;27;20065;-80
2023/10/18 04:08:36;;;;;;;29.70;18.23;;;;;;;;;;5108708;27;20042;-80
2023/10/18 04:11:26;;;;;;;31.58;18.85;;;;;;;;;;5105165;27;20492;-81
2023/10/18 04:14:16;;;;;;;34.63;18.90;;;;;;;;;;5103734;27;20039;-80
2023/10/18 04:17:08;;;;;;;30.73;18.27;;;;;;;;;;5100787;27;20783;-80
2023/10/18 04:19:53;;;;;;;33.85;19.00;;;;;;;;;;5104075;27;20544;-79
2023/10/18 04:22:39;;;;;;;32.03;19.42;;;;;;;;;;5097212;27;20500;-83
2023/10/18 04:25:30;;;;;;;36.67;19.98;;;;;;;;;;5101025;27;20038;-80
2023/10/18 04:28:15;;;;;;;36.88;20.58;;;;;;;;;;5099607;27;20489;-79
2023/10/18 04:30:59;;;;;;;37.67;21.50;;;;;;;;;;5094716;27;20386;-79
2023/10/18 04:33:49;;;;;;;37.17;21.77;;;;;;;;;;5102597;27;20042;-78
2023/10/18 04:36:33;;;;;;;39.13;22.60;;;;;;;;;;5102376;27;20476;-80
2023/10/18 04:39:20;;;;;;;59.97;31.98;;;;;;;;;;5102319;27;20406;-80
2023/10/18 04:42:06;;;;;;;57.38;32.95;;;;;;;;;;5096144;27;20038;-81
2023/10/18 04:44:56;;;;;;;60.58;33.42;;;;;;;;;;5101514;27;20050;-82
2023/10/18 04:47:41;;;;;;;57.15;31.67;;;;;;;;;;5096591;27;20043;-80
2023/10/18 04:50:33;;;;;;;49.60;29.98;;;;;;;;;;5102536;27;20074;-80
2023/10/18 04:53:23;;;;;;;54.15;31.38;;;;;;;;;;5102390;27;20042;-79
2023/10/18 04:56:08;;;;;;;43.03;26.30;;;;;;;;;;5096110;27;20058;-80
2023/10/18 04:58:53;;;;;;;39.47;22.02;;;;;;;;;;5102502;27;20405;-80
2023/10/18 05:01:56;;;;;;;34.42;21.02;;;;;;;;;;5102830;27;20058;-78
2023/10/18 05:04:41;;;;;;;40.92;22.92;;;;;;;;;;5101666;27;20042;-78
2023/10/18 05:07:41;;;;;;;38.50;23.75;;;;;;;;;;5094814;27;20547;-79
2023/10/18 05:10:28;;;;;;;40.13;23.70;;;;;;;;;;5100917;27;20034;-77
2023/10/18 05:13:36;;;;;;;44.80;26.75;;;;;;;;;;5086752;27;20042;-76
2023/10/18 05:16:21;;;;;;;42.40;25.45;;;;;;;;;;5102590;27;20046;-78
2023/10/18 05:19:09;;;;;;;38.42;24.73;;;;;;;;;;5101671;27;20046;-78
2023/10/18 05:21:54;;;;;;;57.45;31.42;;;;;;;;;;5102257;27;20046;-80
2023/10/18 05:24:40;;;;;;;43.97;26.45;;;;;;;;;;5096578;27;20058;-77
2023/10/18 05:27:28;;;;;;;55.25;30.92;;;;;;;;;;5095629;27;20038;-79
2023/10/18 05:30:16;;;;;;;59.58;31.88;;;;;;;;;;5102679;27;20069;-78
2023/10/18 05:35:47;;;;;;;45.63;25.50;;;;;;;;;;5101278;27;20396;-78
2023/10/18 05:41:45;;;;;;;36.95;21.20;;;;;;;;;;5091833;27;20062;-77
2023/10/18 05:44:30;;;;;;;39.85;20.25;;;;;;;;;;5102150;27;20378;-79
2023/10/18 05:47:15;;;;;;;32.40;19.35;;;;;;;;;;5101975;27;20374;-79
2023/10/18 05:50:01;;;;;;;40.40;19.42;;;;;;;;;;5100207;27;20038;-81
2023/10/18 05:52:49;;;;;;;33.63;18.48;;;;;;;;;;5100824;27;20039;-77
2023/10/18 05:55:38;;;;;;;49.67;28.13;;;;;;;;;;5093395;28;20387;-80
2023/10/18 05:58:26;;;;;;;31.42;16.67;;;;;;;;;;5093263;28;20465;-77
2023/10/18 06:01:13;;;;;;;26.98;16.05;;;;;;;;;;5100054;27;20043;-78
2023/10/18 06:03:59;;;;;;;25.05;15.38;;;;;;;;;;5083658;27;20808;-80
2023/10/18 06:06:44;;;;;;;24.67;14.80;;;;;;;;;;5096929;27;20820;-77
2023/10/18 06:09:33;;;;;;;27.33;14.77;;;;;;;;;;5094630;27;20204;-77
2023/10/18 06:12:22;;;;;;;22.27;14.77;;;;;;;;;;5101686;27;20054;-79
2023/10/18 06:15:10;;;;;;;25.52;15.95;;;;;;;;;;5094899;28;20046;-82
2023/10/18 06:17:57;;;;;;;26.25;16.55;;;;;;;;;;5093783;28;20743;-79
2023/10/18 06:20:58;;;;;;;28.05;17.27;;;;;;;;;;5102191;27;20058;-79
2023/10/18 06:23:59;;;;;;;30.45;18.58;;;;;;;;;;5104391;27;20401;-78
2023/10/18 06:26:44;;;;;;;34.55;19.83;;;;;;;;;;5106259;27;20398;-80
2023/10/18 06:29:35;;;;;;;27.80;17.88;;;;;;;;;;5100208;28;20051;-79
2023/10/18 06:32:25;;;;;;;32.55;19.55;;;;;;;;;;5105525;27;20042;-78
2023/10/18 06:35:15;;;;;;;37.63;23.63;;;;;;;;;;5104788;27;20053;-78
2023/10/18 06:38:06;;;;;;;40.00;26.00;;;;;;;;;;5104944;27;20069;-79
2023/10/18 06:41:00;;;;;;;44.88;28.40;;;;;;;;;;5106336;27;20533;-77
2023/10/18 06:43:46;;;;;;;49.35;28.60;;;;;;;;;;5105370;27;20049;-78
2023/10/18 06:46:32;;;;;;;49.13;27.67;;;;;;;;;;5105496;27;20038;-76
2023/10/18 06:49:17;;;;;;;51.13;26.33;;;;;;;;;;5105865;27;20031;-77
2023/10/18 06:52:03;;;;;;;49.13;30.63;;;;;;;;;;5105291;27;20465;-77
2023/10/18 06:54:54;;;;;;;78.22;34.58;;;;;;;;;;5108154;27;20038;-79
2023/10/18 06:57:40;;;;;;;66.07;34.95;;;;;;;;;;5101913;27;20047;-79
2023/10/18 07:00:30;;;;;;;67.68;35.58;;;;;;;;;;5100837;27;20043;-78
2023/10/18 07:03:24;;;;;;;59.78;32.67;;;;;;;;;;5101267;27;20046;-78
2023/10/18 07:06:18;;;;;;;62.50;34.50;;;;;;;;;;5109176;27;20053;-78
2023/10/18 07:09:24;;;;;;;55.25;32.80;;;;;;;;;;5108366;27;20038;-77
2023/10/18 07:12:13;;;;;;;48.10;28.70;;;;;;;;;;5101335;27;20520;-77
2023/10/18 07:14:58;;;;;;;40.38;25.77;;;;;;;;;;5108257;27;20046;-77
2023/10/18 07:17:46;;;;;;;42.97;25.20;;;;;;;;;;5108234;27;20389;-81
2023/10/18 07:20:33;;;;;;;47.13;26.73;;;;;;;;;;5108453;27;20046;-78
2023/10/18 07:23:21;;;;;;;41.38;25.77;;;;;;;;;;5101228;27;20484;-78
2023/10/18 07:26:07;;;;;;;41.38;26.67;;;;;;;;;;5108458;27;20038;-78
2023/10/18 07:28:54;;;;;;;42.63;23.77;;;;;;;;;;5100946;27;20074;-79
2023/10/18 07:31:42;;;;;;;38.92;22.17;;;;;;;;;;5108190;27;20062;-78
2023/10/18 07:34:31;;;;;;;38.55;22.60;;;;;;;;;;5108417;27;20065;-78
2023/10/18 07:37:24;;;;;;;52.30;31.88;;;;;;;;;;5107675;27;20469;-80
2023/10/18 07:40:20;;;;;;;145.32;74.32;;;;;;;;;;5100431;27;20053;-77
2023/10/18 07:43:12;;;;;;;44.50;25.40;;;;;;;;;;5107873;27;20047;-79
2023/10/18 07:46:06;;;;;;;38.25;22.35;;;;;;;;;;5102329;27;20046;-77
2023/10/18 07:49:04;;;;;;;96.78;62.42;;;;;;;;;;5107678;27;20038;-79
2023/10/18 07:51:49;;;;;;;48.13;28.13;;;;;;;;;;5108171;27;20100;-77
2023/10/18 07:54:35;;;;;;;28.95;16.90;;;;;;;;;;5107449;27;20070;-78
2023/10/18 07:57:29;;;;;;;31.10;18.80;;;;;;;;;;5108504;27;20116;-78
2023/10/18 08:00:23;;;;;;;35.13;18.85;;;;;;;;;;5101758;27;20054;-78
2023/10/18 08:03:09;;;;;;;28.92;17.83;;;;;;;;;;5109937;27;20049;-78
2023/10/18 08:05:56;;;;;;;34.17;19.50;;;;;;;;;;5108800;27;20042;-77
2023/10/18 08:08:41;;;;;;;37.80;19.67;;;;;;;;;;5100066;27;20402;-80
2023/10/18 08:11:26;;;;;;;31.23;18.27;;;;;;;;;;5107694;27;20058;-79
2023/10/18 08:14:24;;;;;;;28.45;18.63;;;;;;;;;;5107428;27;20462;-79
2023/10/18 08:17:09;;;;;;;31.23;18.20;;;;;;;;;;5103912;27;20034;-79
2023/10/18 08:20:17;;;;;;;28.63;17.90;;;;;;;;;;5104508;27;20053;-80
2023/10/18 08:23:14;;;;;;;31.80;17.55;;;;;;;;;;5095196;27;20034;-78
2023/10/18 08:26:05;;;;;;;28.73;17.98;;;;;;;;;;5101387;27;20394;-79
2023/10/18 08:28:52;;;;;;;29.13;18.05;;;;;;;;;;5095615;27;20501;-77
2023/10/18 08:31:38;;;;;;;30.75;18.70;;;;;;;;;;5102856;27;20046;-77
2023/10/18 08:34:23;;;;;;;25.02;16.55;;;;;;;;;;5103898;27;20050;-79
2023/10/18 08:37:13;;;;;;;30.83;17.58;;;;;;;;;;5104341;27;20047;-77
2023/10/18 08:39:58;;;;;;;31.85;17.60;;;;;;;;;;5102855;27;20390;-78
2023/10/18 08:42:49;;;;;;;28.25;17.38;;;;;;;;;;5095796;27;20469;-77
2023/10/18 08:45:36;;;;;;;25.20;15.27;;;;;;;;;;5104499;27;20397;-78
2023/10/18 08:48:28;;;;;;;27.30;15.75;;;;;;;;;;5104198;27;20523;-78
2023/10/18 08:51:14;;;;;;;23.35;16.20;;;;;;;;;;5103435;27;20066;-78
2023/10/18 08:54:00;;;;;;;23.58;15.13;;;;;;;;;;5095745;27;20034;-79
2023/10/18 08:56:47;;;;;;;30.00;14.80;;;;;;;;;;5102670;27;20046;-79
2023/10/18 09:00:35;;;;;;;30.17;15.20;;;;;;;;;;5096133;27;20034;-79
2023/10/18 09:02:41;;;;;;;19.00;13.52;;;;;;;;;;5094764;27;20050;-78
2023/10/18 09:05:25;;;;;;;23.90;13.65;;;;;;;;;;5101470;27;20043;-78
2023/10/18 09:08:19;;;;;;;20.02;13.13;;;;;;;;;;5102295;27;20050;-79
2023/10/18 09:11:05;;;;;;;23.67;14.18;;;;;;;;;;5102622;27;20057;-78
2023/10/18 09:14:08;;;;;;;21.15;13.05;;;;;;;;;;5102065;27;20389;-79
2023/10/18 09:17:00;;;;;;;21.95;13.45;;;;;;;;;;5095587;27;20457;-79
2023/10/18 09:19:51;;;;;;;25.48;14.35;;;;;;;;;;5103213;27;20046;-79
2023/10/18 09:22:38;;;;;;;22.40;14.05;;;;;;;;;;5105131;27;20053;-80
2023/10/18 09:25:27;;;;;;;24.33;15.10;;;;;;;;;;5102332;27;20392;-79
2023/10/18 09:28:25;;;;;;;26.58;15.45;;;;;;;;;;5099783;27;20417;-78
2023/10/18 09:31:21;;;;;;;22.52;14.73;;;;;;;;;;5096102;27;20484;-77
2023/10/18 09:34:08;;;;;;;24.85;15.13;;;;;;;;;;5101763;27;20481;-78
2023/10/18 09:36:53;;;;;;;24.88;15.95;;;;;;;;;;5100658;27;20393;-77
2023/10/18 09:39:38;;;;;;;25.90;15.20;;;;;;;;;;5094462;28;20042;-77
2023/10/18 09:42:24;;;;;;;29.45;15.48;;;;;;;;;;5102323;27;20386;-78
2023/10/18 09:45:09;;;;;;;22.77;15.73;;;;;;;;;;5094636;28;20402;-78
2023/10/18 09:47:58;;;;;;;24.17;15.65;;;;;;;;;;5102990;27;20046;-78
2023/10/18 09:50:44;;;;;;;27.60;16.67;;;;;;;;;;5101914;27;20406;-77
2023/10/18 09:53:30;;;;;;;23.38;15.98;;;;;;;;;;5101370;27;20137;-79
2023/10/18 09:56:24;;;;;;;25.50;16.60;;;;;;;;;;5102092;27;21616;-77
2023/10/18 09:59:16;;;;;;;29.75;16.35;;;;;;;;;;5094696;28;20054;-78
2023/10/18 10:02:08;;;;;;;22.67;15.80;;;;;;;;;;5094166;28;20381;-78
2023/10/18 10:04:55;;;;;;;25.27;16.13;;;;;;;;;;5094402;28;20394;-78
2023/10/18 10:07:41;;;;;;;25.45;16.02;;;;;;;;;;5093516;28;20039;-78
2023/10/18 10:10:43;;;;;;;26.33;15.35;;;;;;;;;;5096753;28;20043;-78
2023/10/18 10:13:29;;;;;;;22.02;14.27;;;;;;;;;;5103324;27;20394;-77
2023/10/18 10:16:15;;;;;;;20.90;13.18;;;;;;;;;;5100893;27;20046;-77
2023/10/18 10:19:04;;;;;;;18.90;12.60;;;;;;;;;;5101711;27;20397;-76
2023/10/18 10:21:50;;;;;;;10.20;6.78;;;;;;;;;;5104780;27;20058;-77
2023/10/18 10:24:42;;;;;;;12.18;8.15;;;;;;;;;;5105546;27;20492;-78
2023/10/18 10:27:27;;;;;;;20.05;10.80;;;;;;;;;;5107464;27;20461;-78
2023/10/18 10:33:12;;;;;;;11.40;6.63;;;;;;;;;;5103473;27;20492;-82
2023/10/18 10:36:04;;;;;;;11.13;7.00;;;;;;;;;;5109806;27;20054;-79
2023/10/18 10:38:55;;;;;;;12.65;5.95;;;;;;;;;;5104049;27;20047;-77
2023/10/18 10:41:41;;;;;;;7.15;5.28;;;;;;;;;;5103757;27;20036;-77
2023/10/18 10:44:30;;;;;;;9.05;6.00;;;;;;;;;;5109940;27;20048;-78
2023/10/18 10:47:42;;;;;;;7.95;5.63;;;;;;;;;;5103229;27;20039;-79
2023/10/18 10:50:42;;;;;;;9.55;6.07;;;;;;;;;;5102381;27;20446;-79
2023/10/18 10:53:35;;;;;;;9.52;6.38;;;;;;;;;;5109088;27;20031;-79
2023/10/18 10:56:36;;;;;;;9.10;5.45;;;;;;;;;;5100454;27;20470;-80
2023/10/18 10:59:23;;;;;;;9.73;6.10;;;;;;;;;;5101400;27;20043;-79
2023/10/18 11:02:08;;;;;;;9.75;5.80;;;;;;;;;;5103000;27;20482;-78
2023/10/18 11:05:00;;;;;;;8.25;5.97;;;;;;;;;;5101152;27;20027;-80
2023/10/18 11:07:47;;;;;;;9.30;6.40;;;;;;;;;;5109635;27;20039;-78
2023/10/18 11:10:39;;;;;;;8.27;5.82;;;;;;;;;;5102439;27;20047;-79
2023/10/18 11:13:25;;;;;;;9.43;6.35;;;;;;;;;;5108563;27;20031;-78
2023/10/18 11:16:11;;;;;;;9.65;5.97;;;;;;;;;;5108776;27;20035;-79
2023/10/18 11:18:59;;;;;;;12.52;6.50;;;;;;;;;;5108982;27;20024;-78
2023/10/18 11:21:44;;;;;;;7.88;5.13;;;;;;;;;;5108791;27;20386;-78
2023/10/18 11:24:30;;;;;;;11.93;5.60;;;;;;;;;;5101946;27;20462;-79
2023/10/18 11:27:17;;;;;;;14.55;5.60;;;;;;;;;;5107215;27;20058;-78
2023/10/18 11:30:22;;;;;;;6.93;4.72;;;;;;;;;;5106783;27;20386;-78
2023/10/18 11:33:15;;;;;;;10.07;4.68;;;;;;;;;;5109046;27;20039;-78
2023/10/18 11:36:03;;;;;;;9.30;5.00;;;;;;;;;;5109715;27;20038;-79
2023/10/18 11:41:53;;;;;;;8.27;4.80;;;;;;;;;;5101826;27;20363;-77
2023/10/18 11:44:39;;;;;;;7.43;4.93;;;;;;;;;;5107489;27;20043;-79
2023/10/18 11:47:24;;;;;;;9.60;4.88;;;;;;;;;;5108319;27;20043;-77
2023/10/18 11:50:11;;;;;;;7.32;4.57;;;;;;;;;;5106911;27;20031;-78
2023/10/18 11:53:06;;;;;;;8.50;5.30;;;;;;;;;;5100334;27;20027;-78
2023/10/18 11:56:08;;;;;;;9.60;6.22;;;;;;;;;;5100932;27;20379;-78
2023/10/18 11:58:58;;;;;;;8.52;4.30;;;;;;;;;;5107561;27;20035;-78
2023/10/18 12:01:45;;;;;;;9.05;5.20;;;;;;;;;;5112303;27;21567;-77
2023/10/18 12:04:37;;;;;;;10.52;5.97;;;;;;;;;;5103515;27;20039;-80
2023/10/18 12:07:24;;;;;;;8.45;4.63;;;;;;;;;;5109754;27;20034;-79
2023/10/18 12:10:17;;;;;;;8.10;4.57;;;;;;;;;;5100718;27;20039;-78
2023/10/18 12:13:07;;;;;;;7.53;4.80;;;;;;;;;;5107943;27;20027;-79
2023/10/18 12:15:52;;;;;;;11.40;4.65;;;;;;;;;;5106702;27;20363;-78
2023/10/18 12:18:37;;;;;;;10.73;5.40;;;;;;;;;;5106021;27;20482;-80
2023/10/18 12:21:29;;;;;;;11.00;5.50;;;;;;;;;;5100036;27;20032;-79
2023/10/18 12:24:13;;;;;;;9.23;5.72;;;;;;;;;;5100580;27;20400;-77
2023/10/18 12:26:59;;;;;;;8.35;5.47;;;;;;;;;;5108923;27;20044;-77
2023/10/18 12:29:47;;;;;;;12.27;6.68;;;;;;;;;;5100729;27;20462;-77
2023/10/18 12:32:41;;;;;;;11.25;5.80;;;;;;;;;;5107056;27;20462;-77
2023/10/18 12:35:28;;;;;;;13.60;7.18;;;;;;;;;;5101025;27;20477;-78
2023/10/18 12:38:14;;;;;;;9.38;5.63;;;;;;;;;;5106549;27;20034;-78
2023/10/18 12:40:59;;;;;;;13.45;7.07;;;;;;;;;;5100660;27;20363;-79
2023/10/18 12:43:45;;;;;;;13.48;7.40;;;;;;;;;;5106483;27;20062;-77
2023/10/18 12:46:30;;;;;;;11.55;6.90;;;;;;;;;;5105764;27;20386;-79
2023/10/18 12:49:22;;;;;;;12.25;6.35;;;;;;;;;;5107457;27;20047;-78
2023/10/18 12:52:39;;;;;;;8.25;5.22;;;;;;;;;;5098404;27;20058;-77
2023/10/18 12:58:19;;;;;;;15.95;8.27;;;;;;;;;;5107117;27;20387;-79
2023/10/18 13:01:05;;;;;;;12.45;6.38;;;;;;;;;;5107249;27;20128;-78
2023/10/18 13:03:57;;;;;;;10.57;6.32;;;;;;;;;;5099873;27;20043;-77
2023/10/18 13:06:43;;;;;;;46.67;28.92;;;;;;;;;;5104773;27;20045;-78
2023/10/18 13:09:29;;;;;;;11.00;7.93;;;;;;;;;;5102369;27;20382;-79
2023/10/18 13:12:16;;;;;;;14.52;6.70;;;;;;;;;;5093513;27;20053;-79
2023/10/18 13:15:01;;;;;;;9.23;5.00;;;;;;;;;;5093636;27;20027;-80
2023/10/18 13:17:46;;;;;;;12.30;6.43;;;;;;;;;;5101571;27;20032;-82
2023/10/18 13:20:36;;;;;;;8.25;5.18;;;;;;;;;;5101341;27;20461;-82
2023/10/18 13:23:22;;;;;;;9.32;5.18;;;;;;;;;;5105728;27;20364;-80
2023/10/18 13:26:09;;;;;;;9.57;4.93;;;;;;;;;;5102281;27;20039;-79
2023/10/18 13:29:01;;;;;;;9.25;5.63;;;;;;;;;;5099780;27;20446;-79
2023/10/18 13:31:46;;;;;;;14.52;5.63;;;;;;;;;;5104902;27;20027;-79
2023/10/18 13:34:37;;;;;;;15.43;7.70;;;;;;;;;;5099519;27;20019;-79
2023/10/18 13:37:23;;;;;;;9.60;5.63;;;;;;;;;;5107019;27;20027;-79
2023/10/18 13:40:18;;;;;;;8.73;5.13;;;;;;;;;;5105030;27;20035;-80
2023/10/18 13:43:09;;;;;;;12.30;5.88;;;;;;;;;;5098793;28;20466;-79
2023/10/18 13:45:58;;;;;;;12.88;5.82;;;;;;;;;;5105812;27;20054;-80
2023/10/18 13:48:43;;;;;;;11.02;5.90;;;;;;;;;;5099695;28;20042;-78
2023/10/18 13:51:34;;;;;;;9.73;6.03;;;;;;;;;;5098758;28;20040;-79
2023/10/18 13:54:20;;;;;;;10.30;6.88;;;;;;;;;;5105388;27;20466;-80
2023/10/18 13:57:06;;;;;;;13.80;7.75;;;;;;;;;;5098856;28;20051;-81
2023/10/18 13:59:51;;;;;;;13.52;6.30;;;;;;;;;;5106438;27;20040;-80
2023/10/18 14:02:36;;;;;;;12.05;6.18;;;;;;;;;;5106854;27;20034;-78
2023/10/18 14:05:21;;;;;;;9.88;5.95;;;;;;;;;;5103537;27;20397;-80
2023/10/18 14:08:16;;;;;;;12.02;6.65;;;;;;;;;;5109266;27;20028;-80
2023/10/18 14:11:01;;;;;;;;;;;;;;;;;;5100683;27;20047;-79
2023/10/18 14:13:48;;;;;;;11.68;7.93;;;;;;;;;;5103735;27;19927;-78
2023/10/18 14:16:37;;;;;;;10.45;6.15;;;;;;;;;;5110266;27;21409;-79
2023/10/18 14:19:23;;;;;;;12.55;5.93;;;;;;;;;;5109258;27;20469;-78
2023/10/18 14:22:10;;;;;;;11.95;6.15;;;;;;;;;;5109313;27;20038;-80
2023/10/18 14:24:56;;;;;;;12.05;6.40;;;;;;;;;;5102710;27;20046;-79
2023/10/18 14:27:41;;;;;;;12.57;6.72;;;;;;;;;;5108924;27;20040;-80
2023/10/18 14:30:27;;;;;;;13.75;6.63;;;;;;;;;;5109327;27;20038;-79
2023/10/18 14:33:12;;;;;;;10.43;5.78;;;;;;;;;;5107092;27;20034;-80
2023/10/18 14:36:05;;;;;;;16.25;5.95;;;;;;;;;;5107682;27;20039;-81
2023/10/18 14:38:50;;;;;;;16.52;10.25;;;;;;;;;;5108924;27;20058;-79
2023/10/18 14:41:38;;;;;;;20.23;14.23;;;;;;;;;;5109882;27;20038;-78
2023/10/18 14:44:23;;;;;;;14.75;7.45;;;;;;;;;;5103712;27;20064;-79
2023/10/18 14:47:08;;;;;;;11.35;7.00;;;;;;;;;;5102664;27;20043;-80
2023/10/18 14:49:53;;;;;;;10.73;6.45;;;;;;;;;;5105614;27;20395;-79
2023/10/18 14:52:42;;;;;;;6.85;4.82;;;;;;;;;;5109357;27;20051;-78
2023/10/18 14:55:30;;;;;;;12.00;6.47;;;;;;;;;;5100011;27;20019;-78
2023/10/18 14:58:15;;;;;;;9.77;6.28;;;;;;;;;;5102977;27;20046;-79
2023/10/18 15:01:04;;;;;;;11.25;5.75;;;;;;;;;;5094522;27;20039;-80
2023/10/18 15:03:49;;;;;;;8.57;5.25;;;;;;;;;;5100281;27;20394;-81
2023/10/18 15:06:40;;;;;;;17.75;8.02;;;;;;;;;;5095190;27;20083;-81
2023/10/18 15:09:27;;;;;;;8.10;4.65;;;;;;;;;;5103112;27;20042;-80
2023/10/18 15:12:13;;;;;;;10.70;5.78;;;;;;;;;;5103064;27;20039;-80
2023/10/18 15:14:57;;;;;;;10.80;6.20;;;;;;;;;;5102829;27;20046;-80
2023/10/18 15:17:43;;;;;;;12.25;6.40;;;;;;;;;;5103376;27;20480;-80
2023/10/18 15:20:28;;;;;;;13.18;7.63;;;;;;;;;;5095989;27;20469;-80
2023/10/18 15:23:13;;;;;;;11.63;7.30;;;;;;;;;;5096825;27;20059;-79
2023/10/18 15:26:09;;;;;;;13.88;7.10;;;;;;;;;;5093974;27;20053;-79
2023/10/18 15:28:55;;;;;;;13.55;7.28;;;;;;;;;;5095255;27;20514;-80
2023/10/18 15:31:40;;;;;;;25.55;15.13;;;;;;;;;;5100600;27;20039;-79
2023/10/18 15:34:29;;;;;;;17.13;11.35;;;;;;;;;;5101410;27;20058;-82
2023/10/18 15:37:14;;;;;;;16.15;9.75;;;;;;;;;;5096278;27;20042;-80
2023/10/18 15:40:00;;;;;;;12.57;7.85;;;;;;;;;;5096298;27;20312;-80
2023/10/18 15:42:46;;;;;;;25.33;14.98;;;;;;;;;;5095924;27;20050;-84
2023/10/18 15:45:31;;;;;;;22.63;13.55;;;;;;;;;;5096658;27;20066;-79
2023/10/18 15:48:17;;;;;;;26.48;16.65;;;;;;;;;;5097273;27;20039;-79
2023/10/18 15:51:02;;;;;;;25.38;14.88;;;;;;;;;;5096918;27;20035;-80
2023/10/18 15:53:48;;;;;;;26.15;16.20;;;;;;;;;;5102154;27;20481;-80
2023/10/18 15:56:33;;;;;;;34.78;19.60;;;;;;;;;;5101892;27;20046;-79
2023/10/18 15:59:18;;;;;;;53.63;31.38;;;;;;;;;;5108354;27;20043;-82
2023/10/18 16:02:11;;;;;;;31.60;20.00;;;;;;;;;;5110899;27;20045;-81
2023/10/18 16:04:56;;;;;;;52.22;30.33;;;;;;;;;;5106043;27;20054;-81
2023/10/18 16:07:42;;;;;;;43.30;28.92;;;;;;;;;;5106720;27;20399;-82
2023/10/18 16:10:29;;;;;;;46.28;26.42;;;;;;;;;;5111059;27;20477;-82
2023/10/18 16:16:44;;;;;;;41.40;23.15;;;;;;;;;;5096745;27;20125;-81
2023/10/18 16:19:30;;;;;;;46.75;25.17;;;;;;;;;;5105537;27;20284;-81
2023/10/18 16:22:15;;;;;;;55.85;31.48;;;;;;;;;;5092441;27;20474;-80
2023/10/18 16:24:59;;;;;;;84.35;44.67;;;;;;;;;;5101884;27;20038;-80
2023/10/18 16:27:44;;;;;;;111.55;64.07;;;;;;;;;;5090761;27;20058;-84
2023/10/18 16:30:29;;;;;;;33.88;20.80;;;;;;;;;;5097238;27;20057;-83
2023/10/18 16:33:15;;;;;;;68.35;35.53;;;;;;;;;;5097577;27;20039;-81
2023/10/18 16:36:00;;;;;;;57.33;33.03;;;;;;;;;;5099585;27;20038;-82
2023/10/18 16:38:47;;;;;;;62.90;37.38;;;;;;;;;;5105391;27;20039;-82
2023/10/18 16:41:33;;;;;;;56.78;34.88;;;;;;;;;;5102059;27;20465;-85
2023/10/18 16:44:18;;;;;;;43.33;23.40;;;;;;;;;;5102368;27;20592;-83
2023/10/18 16:47:03;;;;;;;37.95;21.33;;;;;;;;;;5100276;27;20050;-82
2023/10/18 16:49:48;;;;;;;78.63;38.80;;;;;;;;;;5109271;27;20049;-83